Time;durP1;ratioP1;P1;durP2;ratioP2;P2;SDS_P1;SDS_P2;PMS_P1;PMS_P2;Temp;Humidity;BMP_temperature;BMP_pressure;BME280_temperature;BME280_humidity;BME280_pressure;Samples;Min_cycle;Max_cycle;Signal;HPM_P1;HPM_P2
2021/04/06 00:01:39;;;;;;;0.70;0.70;;;-0.40;92.30;;;;;;5049898;28;20232;-81
2021/04/06 00:04:09;;;;;;;1.20;1.20;;;-0.40;92.40;;;;;;5049607;28;20238;-81
2021/04/06 00:06:39;;;;;;;4.30;1.33;;;-0.40;92.90;;;;;;5049907;28;20196;-81
2021/04/06 00:09:09;;;;;;;1.95;1.25;;;-0.50;92.60;;;;;;5050083;28;20196;-81
2021/04/06 00:11:39;;;;;;;1.60;1.50;;;-0.50;92.70;;;;;;5052624;28;20211;-81
2021/04/06 00:14:07;;;;;;;2.47;1.27;;;-0.40;92.80;;;;;;5052733;28;20212;-82
2021/04/06 00:16:35;;;;;;;1.42;0.95;;;-0.20;93.10;;;;;;5053829;28;20204;-81
2021/04/06 00:19:03;;;;;;;4.10;1.90;;;-0.20;92.60;;;;;;5053657;28;20230;-82
2021/04/06 00:21:31;;;;;;;8.98;2.03;;;-0.10;92.70;;;;;;5073505;28;20219;-81
2021/04/06 00:23:58;;;;;;;2.30;1.80;;;0.00;92.50;;;;;;5072867;28;20199;-81
2021/04/06 00:26:25;;;;;;;9.57;2.15;;;0.00;92.00;;;;;;5073991;28;20729;-81
2021/04/06 00:28:53;;;;;;;1.38;0.93;;;0.10;92.00;;;;;;5073823;28;20218;-81
2021/04/06 00:31:20;;;;;;;2.65;1.85;;;0.10;92.20;;;;;;5073691;28;20203;-81
2021/04/06 00:33:51;;;;;;;2.38;1.65;;;0.20;92.40;;;;;;5073024;28;20214;-81
2021/04/06 00:36:25;;;;;;;2.05;1.58;;;0.30;92.20;;;;;;5073424;28;20239;-81
2021/04/06 00:38:54;;;;;;;1.88;1.77;;;0.30;92.20;;;;;;5073558;28;20676;-80
2021/04/06 00:41:21;;;;;;;1.55;1.45;;;0.20;91.60;;;;;;5073555;28;20229;-81
2021/04/06 00:43:49;;;;;;;2.70;1.63;;;0.30;91.80;;;;;;5072781;28;20218;-81
2021/04/06 00:46:19;;;;;;;1.98;1.65;;;0.40;92.10;;;;;;5073331;28;20222;-81
2021/04/06 00:48:48;;;;;;;6.50;3.05;;;0.50;91.90;;;;;;5072997;28;20200;-81
2021/04/06 00:51:16;;;;;;;4.45;2.42;;;0.50;91.60;;;;;;5073124;28;20207;-81
2021/04/06 00:53:58;;;;;;;1.95;1.83;;;0.40;91.20;;;;;;5072892;28;20243;-81
2021/04/06 00:56:26;;;;;;;1.70;1.60;;;0.50;91.30;;;;;;5073289;28;20211;-81
2021/04/06 00:58:54;;;;;;;3.05;1.73;;;0.40;90.70;;;;;;5073100;28;20203;-81
2021/04/06 01:01:34;;;;;;;1.83;1.55;;;0.10;90.90;;;;;;5072683;28;20218;-81
2021/04/06 01:04:07;;;;;;;1.83;1.70;;;0.10;91.40;;;;;;5072164;28;20210;-81
2021/04/06 01:06:53;;;;;;;4.00;1.85;;;0.10;91.80;;;;;;5072823;28;20561;-81
2021/04/06 01:09:42;;;;;;;1.85;1.58;;;0.10;91.80;;;;;;5073060;28;20203;-81
2021/04/06 01:12:14;;;;;;;1.95;1.63;;;-0.30;91.30;;;;;;5073153;28;20924;-81
2021/04/06 01:14:44;;;;;;;1.65;1.52;;;-0.20;92.10;;;;;;5071609;28;20211;-81
2021/04/06 01:17:16;;;;;;;8.00;3.00;;;-0.20;92.20;;;;;;5072646;28;20233;-80
2021/04/06 01:19:43;;;;;;;2.35;1.77;;;-0.40;91.60;;;;;;5067438;28;20593;-80
2021/04/06 01:22:14;;;;;;;2.33;2.13;;;-0.50;91.60;;;;;;5052165;28;20219;-81
2021/04/06 01:24:43;;;;;;;3.20;2.42;;;-0.40;92.20;;;;;;5052191;28;20204;-81
2021/04/06 01:27:13;;;;;;;3.40;3.10;;;-0.30;92.50;;;;;;5052760;28;20224;-81
2021/04/06 01:29:46;;;;;;;3.05;2.30;;;-0.40;92.10;;;;;;5052682;28;20204;-81
2021/04/06 01:32:14;;;;;;;1.92;1.70;;;-0.20;92.30;;;;;;5052671;28;20724;-81
2021/04/06 01:34:42;;;;;;;2.60;2.40;;;-0.10;92.10;;;;;;5051495;28;20203;-81
2021/04/06 01:37:10;;;;;;;3.47;2.40;;;-0.20;92.10;;;;;;5052503;28;20196;-81
2021/04/06 01:39:38;;;;;;;3.10;2.10;;;-0.40;91.50;;;;;;5052214;28;20212;-81
2021/04/06 01:42:08;;;;;;;4.70;2.42;;;-0.60;91.30;;;;;;5052182;28;20563;-81
2021/04/06 01:44:38;;;;;;;3.80;2.40;;;-0.50;91.70;;;;;;5051734;28;20234;-81
2021/04/06 01:47:06;;;;;;;5.68;2.53;;;-0.60;91.90;;;;;;5052006;28;20211;-81
2021/04/06 01:49:34;;;;;;;3.33;2.45;;;-0.60;92.00;;;;;;5051783;28;20307;-81
2021/04/06 01:52:02;;;;;;;3.72;2.40;;;-0.60;92.00;;;;;;5053255;28;20196;-81
2021/04/06 01:54:31;;;;;;;2.95;2.17;;;-0.50;92.30;;;;;;5056037;28;20231;-81
2021/04/06 01:57:07;;;;;;;3.63;2.15;;;-0.70;91.80;;;;;;5063061;28;20219;-81
2021/04/06 01:59:42;;;;;;;6.28;3.17;;;-0.70;91.90;;;;;;5058733;28;20196;-81
2021/04/06 02:02:10;;;;;;;2.08;1.98;;;-0.80;91.70;;;;;;5051989;28;20219;-81
2021/04/06 02:04:40;;;;;;;5.45;2.97;;;-0.90;92.10;;;;;;5071121;28;20211;-81
2021/04/06 02:07:11;;;;;;;2.72;2.10;;;-0.70;92.60;;;;;;5071936;28;20282;-81
2021/04/06 02:09:40;;;;;;;6.43;2.42;;;-0.60;92.00;;;;;;5071899;28;20199;-81
2021/04/06 02:12:08;;;;;;;2.15;1.95;;;-0.50;91.70;;;;;;5060037;28;20232;-81
2021/04/06 02:14:36;;;;;;;2.20;1.95;;;-0.60;91.10;;;;;;5051460;28;20212;-81
2021/04/06 02:17:05;;;;;;;3.22;2.72;;;-0.70;91.30;;;;;;5051481;28;20204;-81
2021/04/06 02:19:33;;;;;;;3.25;2.95;;;-0.70;91.70;;;;;;5051413;28;20204;-81
2021/04/06 02:22:01;;;;;;;2.78;2.25;;;-0.40;91.70;;;;;;5051279;28;20579;-81
2021/04/06 02:24:37;;;;;;;3.53;2.35;;;-0.50;91.30;;;;;;5051414;28;20204;-81
2021/04/06 02:27:10;;;;;;;4.53;1.92;;;-0.70;90.50;;;;;;5051437;28;20240;-81
2021/04/06 02:29:39;;;;;;;10.23;2.65;;;-0.70;90.80;;;;;;5065990;28;20203;-81
2021/04/06 02:32:09;;;;;;;3.28;3.08;;;-0.60;91.40;;;;;;5070892;28;20195;-80
2021/04/06 02:34:39;;;;;;;2.42;2.22;;;-0.70;90.80;;;;;;5069161;28;20563;-81
2021/04/06 02:37:11;;;;;;;3.92;2.10;;;-0.80;90.80;;;;;;5069876;28;20660;-81
2021/04/06 02:39:39;;;;;;;3.42;2.45;;;-0.60;91.20;;;;;;5070901;28;20195;-81
2021/04/06 02:42:26;;;;;;;4.20;2.60;;;-0.70;90.50;;;;;;5070943;28;20310;-81
2021/04/06 02:45:07;;;;;;;4.32;2.97;;;-0.90;90.70;;;;;;5071224;28;20203;-81
2021/04/06 02:47:36;;;;;;;2.50;2.30;;;-0.70;91.20;;;;;;5070530;28;20211;-81
2021/04/06 02:50:05;;;;;;;3.55;2.83;;;-0.80;90.90;;;;;;5070568;28;20203;-81
2021/04/06 02:52:31;;;;;;;2.53;2.33;;;-0.90;90.80;;;;;;5070362;28;20202;-81
2021/04/06 02:54:58;;;;;;;3.55;2.42;;;-1.00;90.80;;;;;;5070701;28;20215;-81
2021/04/06 02:57:26;;;;;;;3.08;2.78;;;-0.90;91.20;;;;;;5071113;28;20211;-81
2021/04/06 02:59:53;;;;;;;3.28;2.67;;;-0.70;91.40;;;;;;5070806;28;20253;-81
2021/04/06 03:02:21;;;;;;;4.95;2.70;;;-0.70;91.00;;;;;;5067441;28;20220;-81
2021/04/06 03:04:48;;;;;;;4.00;2.50;;;-0.70;90.60;;;;;;5049144;28;20243;-81
2021/04/06 03:07:19;;;;;;;2.78;2.42;;;-0.60;90.70;;;;;;5050304;28;20203;-81
2021/04/06 03:09:55;;;;;;;2.78;2.10;;;-0.60;90.20;;;;;;5050969;28;20207;-81
2021/04/06 03:12:25;;;;;;;2.53;2.33;;;-0.80;90.00;;;;;;5050251;28;20199;-80
2021/04/06 03:14:51;;;;;;;3.00;1.95;;;-1.00;89.70;;;;;;5050225;28;20203;-81
2021/04/06 03:17:18;;;;;;;3.50;2.97;;;-1.10;90.50;;;;;;5050851;28;20204;-81
2021/04/06 03:19:45;;;;;;;4.95;2.25;;;-0.90;90.90;;;;;;5050352;28;20204;-80
2021/04/06 03:22:13;;;;;;;2.90;2.60;;;-0.80;91.10;;;;;;5050322;28;20735;-81
2021/04/06 03:24:40;;;;;;;3.25;2.60;;;-0.90;90.10;;;;;;5049949;28;20203;-81
2021/04/06 03:27:08;;;;;;;7.97;3.03;;;-0.90;90.60;;;;;;5050203;28;20219;-81
2021/04/06 03:29:35;;;;;;;3.65;3.35;;;-0.90;90.40;;;;;;5050647;28;20282;-80
2021/04/06 03:32:03;;;;;;;3.65;2.50;;;-0.70;90.60;;;;;;5050370;28;20222;-81
2021/04/06 03:34:31;;;;;;;3.15;2.90;;;-0.80;90.20;;;;;;5050069;28;20199;-80
2021/04/06 03:36:59;;;;;;;3.35;2.58;;;-0.70;90.60;;;;;;5050024;28;20269;-81
2021/04/06 03:39:27;;;;;;;3.22;2.92;;;-0.70;90.90;;;;;;5050609;28;20207;-81
2021/04/06 03:41:53;;;;;;;2.50;2.30;;;-0.60;90.80;;;;;;5049838;28;20223;-81
2021/04/06 03:44:27;;;;;;;4.53;2.88;;;-0.70;90.50;;;;;;5050024;28;20207;-81
2021/04/06 03:46:57;;;;;;;3.00;2.75;;;-0.60;90.20;;;;;;5053821;28;20195;-80
2021/04/06 03:49:26;;;;;;;4.40;3.13;;;-0.70;90.00;;;;;;5054273;28;20677;-81
2021/04/06 03:51:54;;;;;;;3.15;2.95;;;-0.90;90.00;;;;;;5054599;28;20200;-81
2021/04/06 03:54:35;;;;;;;7.70;2.78;;;-0.60;90.80;;;;;;5053621;28;20208;-81
2021/04/06 03:57:21;;;;;;;3.00;2.70;;;-0.80;90.60;;;;;;5054466;28;20665;-81
2021/04/06 03:59:47;;;;;;;5.88;2.60;;;-0.80;90.20;;;;;;5054878;28;20257;-82
2021/04/06 04:02:14;;;;;;;3.65;3.05;;;-0.60;90.60;;;;;;5056162;28;20259;-81
2021/04/06 04:04:40;;;;;;;5.10;3.42;;;-0.60;90.30;;;;;;5073343;28;20199;-81
2021/04/06 04:07:08;;;;;;;3.35;3.05;;;-0.50;90.20;;;;;;5074150;28;20207;-81
2021/04/06 04:09:35;;;;;;;3.83;2.75;;;-0.50;90.00;;;;;;5074111;28;20656;-81
2021/04/06 04:12:02;;;;;;;3.28;2.97;;;-0.90;88.40;;;;;;5074232;28;20222;-81
2021/04/06 04:14:28;;;;;;;2.95;2.63;;;-0.90;90.00;;;;;;5073512;28;20211;-81
2021/04/06 04:16:54;;;;;;;4.70;3.25;;;-0.70;90.50;;;;;;5073956;28;20239;-81
2021/04/06 04:19:21;;;;;;;2.80;2.60;;;-0.60;90.50;;;;;;5073402;28;20214;-81
2021/04/06 04:21:48;;;;;;;3.85;2.72;;;-0.50;90.00;;;;;;5074307;28;20242;-80
2021/04/06 04:24:14;;;;;;;3.35;2.75;;;-0.50;90.30;;;;;;5073526;28;20207;-80
2021/04/06 04:26:42;;;;;;;3.20;2.90;;;-0.30;90.20;;;;;;5073979;28;20203;-81
2021/04/06 04:29:08;;;;;;;4.40;3.28;;;-0.30;90.50;;;;;;5073714;28;20210;-81
2021/04/06 04:31:34;;;;;;;3.05;2.78;;;-0.50;88.40;;;;;;5073992;28;20561;-81
2021/04/06 04:34:01;;;;;;;5.90;3.42;;;-0.60;88.60;;;;;;5073037;28;20574;-81
2021/04/06 04:36:27;;;;;;;5.03;2.70;;;-0.50;90.10;;;;;;5073933;28;20211;-81
2021/04/06 04:38:54;;;;;;;3.22;2.80;;;-0.40;89.70;;;;;;5073534;28;20222;-81
2021/04/06 04:41:20;;;;;;;3.78;2.40;;;-0.50;89.30;;;;;;5073597;28;20208;-81
2021/04/06 04:43:47;;;;;;;3.88;3.20;;;-0.40;90.10;;;;;;5072939;28;20679;-81
2021/04/06 04:46:14;;;;;;;3.85;3.45;;;-0.60;88.80;;;;;;5073130;28;20218;-81
2021/04/06 04:48:40;;;;;;;3.30;2.85;;;-0.30;90.20;;;;;;5073410;28;20230;-81
2021/04/06 04:51:07;;;;;;;3.78;3.40;;;-0.40;90.20;;;;;;5073098;28;20586;-81
2021/04/06 04:53:33;;;;;;;4.15;3.30;;;-0.30;90.10;;;;;;5072766;28;20249;-81
2021/04/06 04:55:59;;;;;;;4.72;3.20;;;-0.20;90.00;;;;;;5072880;28;20243;-81
2021/04/06 04:58:26;;;;;;;3.70;3.38;;;-0.10;89.50;;;;;;5073162;28;20238;-81
2021/04/06 05:00:53;;;;;;;3.67;3.33;;;-0.10;90.00;;;;;;5072707;28;20211;-81
2021/04/06 05:03:19;;;;;;;2.55;2.35;;;-0.30;89.00;;;;;;5061607;28;20223;-81
2021/04/06 05:05:46;;;;;;;4.40;4.00;;;-0.50;89.80;;;;;;5052795;28;20257;-81
2021/04/06 05:08:12;;;;;;;6.30;3.33;;;-0.60;90.00;;;;;;5053279;28;20233;-81
2021/04/06 05:10:39;;;;;;;4.20;3.33;;;-0.40;90.30;;;;;;5052972;28;20207;-81
2021/04/06 05:13:05;;;;;;;5.65;3.17;;;-0.50;90.20;;;;;;5052382;28;20238;-80
2021/04/06 05:15:33;;;;;;;3.60;3.30;;;-0.50;90.60;;;;;;5052293;28;20200;-81
2021/04/06 05:18:00;;;;;;;3.53;2.92;;;-0.50;90.40;;;;;;5053017;28;20208;-81
2021/04/06 05:20:26;;;;;;;9.27;3.88;;;-0.60;90.40;;;;;;5052778;28;20599;-81
2021/04/06 05:22:53;;;;;;;4.05;3.53;;;-0.60;90.50;;;;;;5052157;28;20227;-81
2021/04/06 05:25:19;;;;;;;4.38;3.45;;;-0.50;91.00;;;;;;5052701;28;20231;-81
2021/04/06 05:27:46;;;;;;;6.68;4.13;;;-0.50;90.40;;;;;;5052524;28;20731;-81
2021/04/06 05:30:13;;;;;;;3.75;2.75;;;-0.80;89.90;;;;;;5052157;28;20555;-81
2021/04/06 05:32:39;;;;;;;2.60;2.35;;;-0.70;90.30;;;;;;5052290;28;20196;-81
2021/04/06 05:35:07;;;;;;;4.03;2.60;;;-0.90;90.30;;;;;;5052498;28;20241;-81
2021/04/06 05:37:47;;;;;;;2.88;2.53;;;-0.60;90.80;;;;;;5052177;28;20677;-81
2021/04/06 05:40:14;;;;;;;6.68;2.33;;;-0.40;90.50;;;;;;5052695;28;20211;-82
2021/04/06 05:42:41;;;;;;;6.75;3.47;;;-0.30;90.80;;;;;;5055021;28;20212;-82
2021/04/06 05:45:09;;;;;;;4.88;3.03;;;-0.20;91.10;;;;;;5060947;28;20207;-83
2021/04/06 05:47:37;;;;;;;5.22;3.03;;;-0.30;91.00;;;;;;5060051;28;20196;-82
2021/04/06 05:50:04;;;;;;;4.20;2.90;;;-0.20;90.60;;;;;;5061400;28;20199;-83
2021/04/06 05:52:32;;;;;;;8.75;3.00;;;-0.30;90.10;;;;;;5062189;28;20200;-82
2021/04/06 05:54:59;;;;;;;4.22;3.00;;;0.00;90.80;;;;;;5057533;28;20196;-83
2021/04/06 05:57:27;;;;;;;3.97;3.60;;;-0.10;90.70;;;;;;5061506;28;20550;-83
2021/04/06 05:59:54;;;;;;;4.32;3.45;;;-0.30;90.50;;;;;;5055506;28;20298;-83
2021/04/06 06:02:21;;;;;;;5.82;3.10;;;-0.10;90.60;;;;;;5061196;28;20220;-82
2021/04/06 06:04:47;;;;;;;8.52;3.20;;;0.20;90.90;;;;;;5061565;28;20245;-83
2021/04/06 06:07:15;;;;;;;10.57;3.55;;;0.40;90.40;;;;;;5055453;28;20203;-83
2021/04/06 06:09:43;;;;;;;4.22;3.05;;;0.40;89.90;;;;;;5058810;28;20572;-82
2021/04/06 06:12:11;;;;;;;4.18;2.95;;;0.40;88.80;;;;;;5056181;28;20283;-83
2021/04/06 06:14:40;;;;;;;5.47;3.55;;;0.50;89.00;;;;;;5059728;28;20559;-82
2021/04/06 06:17:14;;;;;;;3.42;3.00;;;0.40;90.00;;;;;;5061562;28;20754;-82
2021/04/06 06:19:41;;;;;;;6.22;2.95;;;0.40;88.40;;;;;;5057281;28;20204;-82
2021/04/06 06:22:13;;;;;;;14.00;3.35;;;0.70;90.00;;;;;;5057278;28;20220;-83
2021/04/06 06:24:43;;;;;;;3.40;3.10;;;0.90;89.90;;;;;;5070196;28;20252;-83
2021/04/06 06:27:36;;;;;;;3.60;3.20;;;0.80;87.50;;;;;;5059348;28;20204;-82
2021/04/06 06:30:23;;;;;;;4.40;2.65;;;0.60;88.30;;;;;;5052739;28;20200;-82
2021/04/06 06:32:49;;;;;;;4.20;2.70;;;0.80;88.70;;;;;;5051346;28;20204;-82
2021/04/06 06:35:34;;;;;;;4.85;3.00;;;0.60;86.60;;;;;;5054037;28;20744;-83
2021/04/06 06:38:17;;;;;;;4.65;2.72;;;0.70;87.50;;;;;;5051258;28;20253;-83
2021/04/06 06:40:43;;;;;;;3.00;2.55;;;0.70;88.40;;;;;;5051291;28;20285;-83
2021/04/06 06:43:13;;;;;;;3.38;2.30;;;0.50;87.70;;;;;;5057793;28;20219;-82
2021/04/06 06:45:40;;;;;;;12.65;4.25;;;0.70;90.00;;;;;;5060978;28;20214;-82
2021/04/06 06:48:08;;;;;;;3.28;2.58;;;0.50;87.10;;;;;;5059283;28;20203;-82
2021/04/06 06:50:46;;;;;;;5.40;2.55;;;0.50;87.50;;;;;;5059835;28;20226;-83
2021/04/06 06:53:13;;;;;;;10.98;3.15;;;0.60;89.20;;;;;;5057375;28;20250;-83
2021/04/06 06:55:40;;;;;;;5.72;3.00;;;0.70;88.60;;;;;;5059573;28;20195;-82
2021/04/06 06:58:07;;;;;;;3.78;2.38;;;0.60;87.70;;;;;;5070903;28;20231;-82
2021/04/06 07:00:35;;;;;;;9.13;3.42;;;0.80;88.20;;;;;;5071020;28;20200;-83
2021/04/06 07:03:01;;;;;;;3.40;2.20;;;1.10;88.50;;;;;;5070952;28;20231;-83
2021/04/06 07:05:29;;;;;;;4.53;2.85;;;1.10;86.50;;;;;;5070943;28;20218;-83
2021/04/06 07:07:58;;;;;;;3.50;2.80;;;1.40;88.20;;;;;;5068776;28;20672;-84
2021/04/06 07:10:27;;;;;;;15.02;3.40;;;1.50;87.10;;;;;;5050705;28;20295;-83
2021/04/06 07:13:05;;;;;;;7.55;2.67;;;1.30;84.90;;;;;;5050528;28;20200;-83
2021/04/06 07:15:32;;;;;;;3.10;2.75;;;1.40;85.70;;;;;;5051217;28;20204;-83
2021/04/06 07:18:06;;;;;;;3.85;2.60;;;1.50;85.50;;;;;;5050852;28;20298;-83
2021/04/06 07:20:37;;;;;;;4.70;2.78;;;1.30;84.30;;;;;;5055018;28;20229;-84
2021/04/06 07:23:09;;;;;;;3.42;2.38;;;1.30;86.20;;;;;;5071442;28;20234;-83
2021/04/06 07:25:36;;;;;;;3.03;2.70;;;1.30;85.50;;;;;;5068289;28;20240;-83
2021/04/06 07:28:04;;;;;;;3.70;2.35;;;1.30;86.10;;;;;;5053478;28;20554;-84
2021/04/06 07:30:46;;;;;;;8.48;3.47;;;1.60;87.00;;;;;;5065295;28;20195;-83
2021/04/06 07:33:21;;;;;;;3.60;2.80;;;1.70;86.00;;;;;;5060350;28;20207;-82
2021/04/06 07:36:04;;;;;;;3.30;2.83;;;1.80;84.40;;;;;;5060809;28;20202;-83
2021/04/06 07:38:34;;;;;;;3.33;2.72;;;1.90;84.70;;;;;;5064038;28;20664;-80
2021/04/06 07:41:01;;;;;;;2.88;2.47;;;1.70;85.00;;;;;;5068600;28;20199;-82
2021/04/06 07:43:31;;;;;;;3.20;2.58;;;1.70;84.70;;;;;;5067641;28;20211;-81
2021/04/06 07:45:58;;;;;;;3.72;2.90;;;1.70;84.90;;;;;;5059032;28;20219;-82
2021/04/06 07:48:46;;;;;;;3.92;3.00;;;1.70;85.00;;;;;;5056164;28;20215;-81
2021/04/06 07:51:23;;;;;;;3.97;2.42;;;1.40;83.70;;;;;;5055395;28;20208;-81
2021/04/06 07:54:02;;;;;;;3.45;2.70;;;1.70;85.20;;;;;;5053902;28;20198;-82
2021/04/06 07:56:54;;;;;;;4.65;3.00;;;1.70;85.60;;;;;;5059418;28;20219;-82
2021/04/06 07:59:51;;;;;;;4.30;3.90;;;2.00;84.10;;;;;;5056342;28;20203;-82
2021/04/06 08:02:45;;;;;;;6.00;2.80;;;2.10;85.30;;;;;;5060505;28;20215;-82
2021/04/06 08:05:26;;;;;;;5.05;3.20;;;2.10;83.90;;;;;;5062842;28;20204;-82
2021/04/06 08:07:52;;;;;;;7.45;3.17;;;2.20;83.30;;;;;;5055126;28;20206;-82
2021/04/06 08:10:40;;;;;;;8.73;2.85;;;2.10;83.20;;;;;;5057407;28;20199;-81
2021/04/06 08:13:10;;;;;;;7.65;3.35;;;2.10;82.90;;;;;;5055651;28;20206;-82
2021/04/06 08:15:36;;;;;;;3.67;2.90;;;2.20;84.70;;;;;;5057668;28;20204;-82
2021/04/06 08:18:24;;;;;;;3.20;2.83;;;2.30;84.80;;;;;;5056742;28;20196;-84
2021/04/06 08:20:52;;;;;;;4.88;3.50;;;2.40;84.00;;;;;;5050888;28;20250;-84
2021/04/06 08:23:41;;;;;;;4.07;2.60;;;2.40;82.60;;;;;;5055241;28;20267;-84
2021/04/06 08:26:28;;;;;;;5.03;2.00;;;2.40;83.00;;;;;;5052566;28;20200;-84
2021/04/06 08:28:55;;;;;;;4.85;3.15;;;2.40;81.90;;;;;;5054197;28;20287;-83
2021/04/06 08:31:32;;;;;;;4.18;2.72;;;2.20;80.40;;;;;;5054366;28;20591;-84
2021/04/06 08:34:28;;;;;;;8.45;3.08;;;2.40;82.20;;;;;;5056903;28;20196;-83
2021/04/06 08:37:17;;;;;;;8.45;4.00;;;2.40;81.20;;;;;;5056668;28;20208;-83
2021/04/06 08:39:44;;;;;;;7.55;3.55;;;2.70;83.00;;;;;;5058203;28;20188;-83
2021/04/06 08:42:15;;;;;;;2.72;2.35;;;2.70;82.40;;;;;;5057295;28;20216;-82
2021/04/06 08:44:48;;;;;;;3.80;2.53;;;2.90;80.80;;;;;;5058446;28;20253;-84
2021/04/06 08:47:50;;;;;;;2.38;2.17;;;2.90;79.50;;;;;;5055087;28;20221;-84
2021/04/06 08:50:33;;;;;;;3.70;2.50;;;2.90;80.60;;;;;;5058718;28;20204;-84
2021/04/06 08:53:00;;;;;;;6.22;2.22;;;2.70;81.50;;;;;;5060672;28;20275;-83
2021/04/06 08:55:31;;;;;;;3.03;2.70;;;2.30;82.00;;;;;;5055084;28;20622;-84
2021/04/06 08:58:44;;;;;;;7.32;2.42;;;2.30;84.10;;;;;;5048656;28;20673;-85
2021/04/06 09:01:17;;;;;;;5.82;2.50;;;2.20;83.80;;;;;;5041698;28;20281;-84
2021/04/06 09:03:43;;;;;;;3.72;2.30;;;2.30;84.10;;;;;;5044151;28;20272;-84
2021/04/06 09:06:12;;;;;;;4.15;2.45;;;2.30;83.50;;;;;;5044403;28;20200;-84
2021/04/06 09:08:50;;;;;;;2.70;1.88;;;2.40;82.90;;;;;;5044349;28;20200;-84
2021/04/06 09:11:20;;;;;;;6.43;3.00;;;2.50;82.60;;;;;;5034115;28;20207;-84
2021/04/06 09:13:47;;;;;;;9.00;3.70;;;2.60;82.30;;;;;;5040358;28;20198;-84
2021/04/06 09:16:14;;;;;;;4.20;2.92;;;2.40;81.30;;;;;;5051444;28;20220;-83
2021/04/06 09:18:40;;;;;;;10.85;3.05;;;2.40;82.70;;;;;;5044281;28;20196;-82
2021/04/06 09:21:08;;;;;;;3.17;2.67;;;2.50;83.20;;;;;;5054897;28;20199;-83
2021/04/06 09:23:37;;;;;;;2.75;2.55;;;2.30;82.20;;;;;;5064070;28;20212;-83
2021/04/06 09:26:12;;;;;;;4.70;2.25;;;2.40;83.30;;;;;;5050903;28;20654;-83
2021/04/06 09:28:40;;;;;;;6.53;2.78;;;2.70;83.40;;;;;;5049558;28;20554;-83
2021/04/06 09:31:07;;;;;;;5.50;2.25;;;3.00;82.40;;;;;;5035054;28;20258;-83
2021/04/06 09:33:34;;;;;;;4.35;2.03;;;3.00;80.30;;;;;;5036346;28;20612;-82
2021/04/06 09:36:00;;;;;;;2.45;2.13;;;3.00;80.10;;;;;;5050612;28;20207;-83
2021/04/06 09:38:27;;;;;;;2.95;1.73;;;2.90;80.80;;;;;;5032106;28;20204;-83
2021/04/06 09:40:54;;;;;;;11.23;2.30;;;2.90;82.00;;;;;;5046463;28;20204;-83
2021/04/06 09:43:22;;;;;;;2.88;2.58;;;2.80;80.50;;;;;;5050371;28;20620;-83
2021/04/06 09:45:49;;;;;;;2.42;1.60;;;2.70;80.50;;;;;;5048423;28;20214;-83
2021/04/06 09:48:16;;;;;;;5.03;2.10;;;2.60;81.60;;;;;;5052276;28;20210;-83
2021/04/06 09:50:56;;;;;;;5.03;2.05;;;2.60;80.60;;;;;;5042804;28;20208;-83
2021/04/06 09:53:22;;;;;;;3.03;2.05;;;2.70;81.30;;;;;;5045770;28;20197;-83
2021/04/06 09:55:49;;;;;;;4.30;2.10;;;2.80;79.80;;;;;;5041330;28;20200;-83
2021/04/06 09:58:16;;;;;;;5.50;1.80;;;3.00;80.30;;;;;;5042031;28;20235;-83
2021/04/06 10:00:45;;;;;;;2.80;1.80;;;3.10;79.30;;;;;;5035167;28;20491;-83
2021/04/06 10:03:14;;;;;;;3.95;2.30;;;3.40;80.20;;;;;;5031517;28;20250;-84
2021/04/06 10:05:44;;;;;;;1.50;1.40;;;4.10;79.50;;;;;;5046764;28;20204;-84
2021/04/06 10:08:11;;;;;;;4.63;2.05;;;4.10;78.20;;;;;;5051969;28;20477;-84
2021/04/06 10:10:46;;;;;;;5.38;2.20;;;4.10;76.30;;;;;;5044643;28;20278;-85
2021/04/06 10:13:16;;;;;;;3.25;1.60;;;3.90;75.50;;;;;;5060733;28;20206;-86
2021/04/06 10:15:44;;;;;;;1.52;1.42;;;3.90;76.90;;;;;;5059359;28;20199;-86
2021/04/06 10:18:20;;;;;;;2.67;2.42;;;3.50;74.80;;;;;;5058453;28;20192;-84
2021/04/06 10:20:49;;;;;;;3.72;2.10;;;3.10;75.80;;;;;;5060938;28;20200;-86
2021/04/06 10:23:31;;;;;;;6.97;3.10;;;3.00;76.30;;;;;;5061373;28;20582;-84
2021/04/06 10:25:58;;;;;;;3.70;1.60;;;2.80;78.10;;;;;;5061515;28;20219;-84
2021/04/06 10:28:32;;;;;;;2.47;2.28;;;3.60;80.20;;;;;;5059445;28;20568;-86
2021/04/06 10:31:01;;;;;;;2.67;2.00;;;4.10;77.60;;;;;;5058097;28;20242;-85
2021/04/06 10:33:30;;;;;;;2.72;2.00;;;4.30;77.10;;;;;;5060009;28;20203;-84
2021/04/06 10:36:07;;;;;;;6.35;2.50;;;4.70;75.50;;;;;;5062409;28;20191;-85
2021/04/06 10:38:40;;;;;;;4.45;2.08;;;4.70;73.90;;;;;;5061308;28;20202;-84
2021/04/06 10:41:09;;;;;;;3.25;2.22;;;4.50;72.20;;;;;;5061617;28;20203;-84
2021/04/06 10:43:39;;;;;;;2.53;1.65;;;3.80;72.40;;;;;;5061705;28;20765;-85
2021/04/06 10:46:08;;;;;;;2.33;1.95;;;3.80;73.90;;;;;;5060433;28;20199;-85
2021/04/06 10:48:42;;;;;;;3.85;1.92;;;3.90;73.30;;;;;;5064665;28;20632;-83
2021/04/06 10:51:11;;;;;;;3.55;2.80;;;3.90;74.10;;;;;;5060584;28;20215;-83
2021/04/06 10:53:42;;;;;;;2.05;1.85;;;4.30;74.80;;;;;;5050591;28;20214;-84
2021/04/06 10:56:12;;;;;;;2.47;2.05;;;4.50;72.00;;;;;;5050531;28;20203;-83
2021/04/06 10:58:44;;;;;;;3.85;2.35;;;4.20;70.60;;;;;;5051311;28;20658;-83
2021/04/06 11:01:14;;;;;;;2.38;2.17;;;3.70;71.60;;;;;;5054627;28;20441;-83
2021/04/06 11:03:44;;;;;;;6.55;2.20;;;3.70;71.00;;;;;;5054591;28;20226;-82
2021/04/06 11:06:13;;;;;;;6.28;1.70;;;3.90;71.20;;;;;;5045942;28;20311;-82
2021/04/06 11:08:41;;;;;;;3.72;2.08;;;4.40;71.90;;;;;;5048350;28;20589;-81
2021/04/06 11:11:20;;;;;;;4.03;2.42;;;4.80;68.40;;;;;;5060294;28;20248;-82
2021/04/06 11:13:47;;;;;;;5.68;3.10;;;4.40;68.60;;;;;;5064447;28;20578;-81
2021/04/06 11:16:15;;;;;;;2.58;1.70;;;4.90;69.40;;;;;;5068380;28;20218;-82
2021/04/06 11:18:42;;;;;;;6.13;2.40;;;4.90;68.20;;;;;;5070820;28;20200;-82
2021/04/06 11:21:09;;;;;;;2.67;1.70;;;5.00;69.00;;;;;;5066799;28;20253;-81
2021/04/06 11:23:36;;;;;;;2.08;1.77;;;4.60;65.10;;;;;;5067112;28;20215;-81
2021/04/06 11:26:03;;;;;;;3.90;2.35;;;4.60;68.00;;;;;;5065280;28;20204;-81
2021/04/06 11:28:29;;;;;;;2.08;1.63;;;4.80;67.90;;;;;;5061031;28;20199;-81
2021/04/06 11:30:56;;;;;;;4.40;2.03;;;4.70;64.70;;;;;;5070275;28;20203;-82
2021/04/06 11:33:23;;;;;;;2.25;1.60;;;4.50;64.60;;;;;;5068687;28;20199;-81
2021/04/06 11:35:50;;;;;;;3.55;2.10;;;4.60;66.20;;;;;;5053323;28;20204;-81
2021/04/06 11:38:17;;;;;;;2.30;2.10;;;4.60;63.30;;;;;;5050629;28;20269;-81
2021/04/06 11:40:44;;;;;;;2.70;1.80;;;4.50;64.60;;;;;;5050253;28;20203;-82
2021/04/06 11:43:10;;;;;;;7.47;2.47;;;4.70;65.10;;;;;;5049615;28;20228;-82
2021/04/06 11:45:37;;;;;;;2.58;2.33;;;5.00;64.20;;;;;;5050241;28;20299;-81
2021/04/06 11:48:04;;;;;;;2.95;2.00;;;4.70;64.50;;;;;;5055708;28;20264;-81
2021/04/06 11:50:31;;;;;;;3.35;2.30;;;4.60;63.90;;;;;;5060297;28;20226;-82
2021/04/06 11:52:58;;;;;;;3.60;2.60;;;5.00;67.90;;;;;;5062239;28;20195;-82
2021/04/06 11:55:25;;;;;;;3.42;1.85;;;5.10;65.20;;;;;;5059648;28;20666;-81
2021/04/06 11:57:51;;;;;;;2.83;1.90;;;5.20;63.10;;;;;;5060744;28;20195;-81
2021/04/06 12:00:19;;;;;;;3.90;2.42;;;5.00;60.40;;;;;;5070330;28;20206;-81
2021/04/06 12:02:45;;;;;;;2.40;2.20;;;5.10;63.50;;;;;;5058212;28;20223;-81
2021/04/06 12:05:13;;;;;;;2.45;2.25;;;5.00;60.50;;;;;;5049661;28;20212;-81
2021/04/06 12:07:40;;;;;;;3.00;1.85;;;4.60;61.30;;;;;;5051901;28;20203;-81
2021/04/06 12:10:09;;;;;;;3.30;2.08;;;4.20;60.60;;;;;;5068805;28;20207;-80
2021/04/06 12:12:35;;;;;;;2.28;1.83;;;4.30;59.40;;;;;;5072812;28;20199;-80
2021/04/06 12:15:02;;;;;;;4.85;2.33;;;4.50;61.00;;;;;;5070180;28;20625;-81
2021/04/06 12:17:29;;;;;;;2.55;2.20;;;4.50;59.10;;;;;;5070027;28;20210;-81
2021/04/06 12:19:55;;;;;;;2.63;2.22;;;4.60;59.60;;;;;;5065673;28;20203;-82
2021/04/06 12:22:21;;;;;;;6.10;2.55;;;4.70;61.60;;;;;;5066918;28;20629;-81
2021/04/06 12:24:49;;;;;;;5.32;2.40;;;4.60;61.70;;;;;;5059890;28;20196;-82
2021/04/06 12:27:15;;;;;;;2.75;1.88;;;4.70;62.00;;;;;;5055432;28;20203;-81
2021/04/06 12:29:42;;;;;;;7.22;2.20;;;4.80;59.50;;;;;;5058654;28;20657;-82
2021/04/06 12:32:08;;;;;;;1.92;1.77;;;4.80;59.40;;;;;;5060832;28;20197;-82
2021/04/06 12:34:35;;;;;;;3.33;2.33;;;4.90;57.40;;;;;;5062067;28;20203;-82
2021/04/06 12:37:01;;;;;;;2.85;2.30;;;5.30;58.90;;;;;;5063101;28;20199;-82
2021/04/06 12:39:27;;;;;;;4.30;1.95;;;5.60;57.40;;;;;;5058651;28;20575;-82
2021/04/06 12:41:55;;;;;;;3.17;2.10;;;6.00;58.60;;;;;;5062535;28;20656;-81
2021/04/06 12:44:21;;;;;;;4.00;1.63;;;6.00;56.20;;;;;;5063154;28;20219;-82
2021/04/06 12:46:48;;;;;;;6.38;1.50;;;5.80;55.80;;;;;;5059020;28;20199;-81
2021/04/06 12:49:14;;;;;;;1.90;1.70;;;5.90;56.00;;;;;;5062232;28;20207;-82
2021/04/06 12:51:40;;;;;;;9.80;7.78;;;5.80;54.40;;;;;;5065619;28;20250;-82
2021/04/06 12:54:07;;;;;;;6.35;2.90;;;5.80;54.90;;;;;;5051831;28;20196;-82
2021/04/06 12:56:34;;;;;;;2.85;1.50;;;5.50;54.50;;;;;;5050914;28;20200;-82
2021/04/06 12:59:01;;;;;;;6.32;5.80;;;5.30;53.20;;;;;;5049943;28;20717;-83
2021/04/06 13:01:27;;;;;;;2.75;2.28;;;5.00;52.30;;;;;;5033047;28;20670;-82
2021/04/06 13:03:54;;;;;;;8.40;2.47;;;4.90;53.00;;;;;;5031838;28;20708;-82
2021/04/06 13:06:20;;;;;;;6.38;4.43;;;5.00;53.80;;;;;;5030981;28;20219;-82
2021/04/06 13:08:47;;;;;;;4.55;4.15;;;5.40;52.40;;;;;;5040393;28;20200;-82